createdAt,value
2019-06-15T00:00:29.947Z,5.73
2019-06-15T00:02:59.508Z,6.57
2019-06-15T00:05:29.066Z,5.70
2019-06-15T00:07:58.631Z,6.37
2019-06-15T00:10:28.114Z,7.90
2019-06-15T00:12:57.695Z,7.43
2019-06-15T00:15:27.249Z,7.10
2019-06-15T00:17:56.765Z,9.00
2019-06-15T00:20:26.273Z,7.87
2019-06-15T00:22:55.754Z,8.27
2019-06-15T00:25:25.329Z,7.10
2019-06-15T00:27:54.831Z,7.30
2019-06-15T00:30:24.545Z,6.47
2019-06-15T00:32:54.066Z,6.60
2019-06-15T00:35:23.781Z,6.50
2019-06-15T00:37:57.258Z,6.57
2019-06-15T00:40:26.795Z,6.00
2019-06-15T00:42:59.036Z,6.00
2019-06-15T00:45:28.485Z,6.20
2019-06-15T00:47:58.001Z,5.90
2019-06-15T00:50:27.462Z,6.70
2019-06-15T00:52:56.969Z,7.40
2019-06-15T00:55:26.489Z,6.03
2019-06-15T00:57:56.029Z,6.90
2019-06-15T01:00:25.670Z,6.50
2019-06-15T01:02:55.193Z,6.70
2019-06-15T01:05:24.771Z,7.43
2019-06-15T01:07:54.269Z,7.23
2019-06-15T01:10:24.607Z,7.33
2019-06-15T01:12:54.115Z,8.77
2019-06-15T01:15:23.742Z,7.13
2019-06-15T01:17:53.276Z,7.33
2019-06-15T01:20:23.092Z,7.17
2019-06-15T01:22:52.664Z,7.43
2019-06-15T01:25:22.319Z,6.77
2019-06-15T01:27:51.842Z,6.77
2019-06-15T01:30:22.377Z,6.60
2019-06-15T01:32:51.866Z,6.93
2019-06-15T01:35:21.453Z,6.57
2019-06-15T01:37:50.925Z,7.30
2019-06-15T01:40:20.677Z,7.20
2019-06-15T01:42:50.270Z,7.23
2019-06-15T01:45:26.448Z,7.20
2019-06-15T01:47:56.630Z,7.60
2019-06-15T01:50:26.299Z,7.87
2019-06-15T01:52:55.780Z,7.50
2019-06-15T01:55:25.291Z,8.30
2019-06-15T01:57:54.787Z,8.13
2019-06-15T02:00:31.947Z,7.47
2019-06-15T02:03:01.527Z,7.63
2019-06-15T02:05:31.099Z,7.73
2019-06-15T02:08:00.574Z,7.80
2019-06-15T02:10:31.585Z,6.83
2019-06-15T02:13:02.011Z,7.90
2019-06-15T02:15:31.790Z,7.60
2019-06-15T02:18:01.281Z,7.07
2019-06-15T02:20:30.842Z,7.97
2019-06-15T02:23:00.336Z,7.77
2019-06-15T02:25:36.318Z,8.00
2019-06-15T02:28:03.600Z,9.43
2019-06-15T02:30:35.049Z,8.90
2019-06-15T02:33:04.889Z,7.93
2019-06-15T02:35:34.639Z,7.93
2019-06-15T02:38:04.370Z,8.13
2019-06-15T02:40:34.035Z,8.67
2019-06-15T02:43:03.740Z,8.17
2019-06-15T02:45:33.225Z,8.57
2019-06-15T02:48:02.805Z,8.33
2019-06-15T02:50:33.240Z,7.83
2019-06-15T02:53:02.745Z,8.60
2019-06-15T02:55:32.310Z,7.80
2019-06-15T02:58:01.848Z,8.67
2019-06-15T03:00:44.819Z,8.03
2019-06-15T03:03:14.419Z,7.97
2019-06-15T03:05:43.975Z,8.20
2019-06-15T03:08:13.543Z,8.77
2019-06-15T03:10:43.061Z,9.20
2019-06-15T03:13:13.601Z,8.73
2019-06-15T03:15:43.107Z,8.53
2019-06-15T03:18:12.603Z,8.17
2019-06-15T03:20:42.188Z,9.30
2019-06-15T03:23:11.666Z,7.30
2019-06-15T03:25:41.248Z,9.20
2019-06-15T03:28:10.746Z,8.43
2019-06-15T03:30:41.878Z,8.83
2019-06-15T03:33:11.524Z,9.17
2019-06-15T03:35:41.078Z,6.77
2019-06-15T03:38:10.670Z,9.60
2019-06-15T03:40:41.618Z,8.70
2019-06-15T03:43:11.445Z,8.97
2019-06-15T03:45:40.951Z,9.20
2019-06-15T03:48:10.443Z,8.30
2019-06-15T03:50:39.952Z,8.13
2019-06-15T03:53:09.442Z,8.27
2019-06-15T03:55:40.575Z,7.90
2019-06-15T03:58:10.113Z,8.07
2019-06-15T04:00:51.748Z,8.83
2019-06-15T04:03:21.235Z,7.77
2019-06-15T04:05:50.748Z,7.90
2019-06-15T04:08:20.233Z,7.50
2019-06-15T04:10:49.770Z,8.13
2019-06-15T04:13:19.357Z,8.07
2019-06-15T04:15:48.905Z,7.83
2019-06-15T04:18:18.391Z,10.33
2019-06-15T04:20:47.901Z,8.80
2019-06-15T04:23:17.372Z,9.00
2019-06-15T04:25:46.906Z,9.63
2019-06-15T04:28:16.419Z,9.13
2019-06-15T04:30:45.897Z,11.80
2019-06-15T04:33:15.404Z,11.60
2019-06-15T04:35:44.960Z,10.87
2019-06-15T04:38:14.548Z,12.60
2019-06-15T04:40:44.116Z,11.57
2019-06-15T04:43:13.624Z,11.93
2019-06-15T04:45:43.180Z,12.70
2019-06-15T04:48:12.835Z,12.27
2019-06-15T04:50:42.371Z,12.90
2019-06-15T04:53:14.786Z,11.80
2019-06-15T04:55:43.182Z,12.23
2019-06-15T04:58:12.694Z,14.40
2019-06-15T05:00:42.286Z,12.57
2019-06-15T05:03:11.888Z,12.53
2019-06-15T05:05:41.387Z,13.97
2019-06-15T05:08:10.911Z,14.77
2019-06-15T05:10:40.976Z,14.13
2019-06-15T05:13:10.553Z,14.87
2019-06-15T05:15:40.048Z,13.87
2019-06-15T05:18:09.605Z,14.47
2019-06-15T05:20:39.238Z,12.90
2019-06-15T05:23:08.991Z,12.30
2019-06-15T05:25:38.485Z,11.00
2019-06-15T05:28:08.071Z,11.60
2019-06-15T05:30:37.576Z,11.00
2019-06-15T05:33:07.146Z,10.97
2019-06-15T05:35:36.660Z,9.60
2019-06-15T05:38:06.244Z,8.90
2019-06-15T05:40:36.095Z,10.40
2019-06-15T05:43:05.586Z,9.53
2019-06-15T05:45:35.085Z,9.77
2019-06-15T05:48:04.736Z,11.03
2019-06-15T05:50:34.381Z,10.33
2019-06-15T05:53:03.879Z,11.03
2019-06-15T05:55:33.395Z,12.70
2019-06-15T05:58:02.951Z,14.20
2019-06-15T06:00:32.512Z,14.00
2019-06-15T06:03:02.018Z,15.00
2019-06-15T06:05:31.601Z,11.93
2019-06-15T06:08:01.126Z,12.30
2019-06-15T06:10:30.609Z,11.90
2019-06-15T06:13:00.110Z,11.13
2019-06-15T06:15:29.618Z,10.70
2019-06-15T06:17:59.219Z,9.20
2019-06-15T06:20:28.802Z,9.73
2019-06-15T06:22:58.375Z,8.00
2019-06-15T06:25:27.874Z,9.83
2019-06-15T06:27:57.371Z,8.83
2019-06-15T06:30:30.132Z,8.47
2019-06-15T06:32:58.241Z,9.30
2019-06-15T06:35:27.833Z,8.37
2019-06-15T06:37:57.420Z,7.63
2019-06-15T06:40:26.932Z,7.70
2019-06-15T06:42:56.498Z,8.83
2019-06-15T06:45:26.310Z,7.50
2019-06-15T06:47:55.796Z,7.27
2019-06-15T06:50:25.467Z,7.37
2019-06-15T06:52:54.944Z,6.53
2019-06-15T06:55:24.472Z,6.77
2019-06-15T06:57:57.084Z,7.73
2019-06-15T07:00:25.291Z,5.37
2019-06-15T07:02:54.861Z,4.87
2019-06-15T07:05:24.369Z,4.50
2019-06-15T07:07:55.568Z,4.40
2019-06-15T07:10:26.623Z,4.20
2019-06-15T07:13:00.262Z,4.30
2019-06-15T07:15:29.783Z,3.90
2019-06-15T07:18:02.367Z,3.47
2019-06-15T07:20:31.879Z,3.40
2019-06-15T07:23:01.640Z,3.37
2019-06-15T07:25:31.602Z,3.40
2019-06-15T07:28:07.982Z,3.77
2019-06-15T07:30:34.253Z,3.07
2019-06-15T07:33:03.855Z,2.70
2019-06-15T07:35:33.405Z,3.27
2019-06-15T07:38:03.065Z,2.70
2019-06-15T07:40:32.558Z,3.17
2019-06-15T07:43:02.057Z,2.90
2019-06-15T07:45:31.644Z,2.50
2019-06-15T07:48:01.152Z,2.53
2019-06-15T07:50:30.671Z,2.70
2019-06-15T07:53:00.186Z,2.40
2019-06-15T07:55:29.777Z,2.20
2019-06-15T07:57:59.253Z,2.43
2019-06-15T08:00:28.912Z,2.70
2019-06-15T08:02:58.486Z,2.60
2019-06-15T08:05:28.012Z,3.30
2019-06-15T08:07:57.578Z,2.27
2019-06-15T08:10:27.123Z,2.37
2019-06-15T08:12:56.720Z,2.07
2019-06-15T08:15:26.223Z,1.80
2019-06-15T08:17:55.719Z,2.30
2019-06-15T08:20:35.425Z,1.70
2019-06-15T08:23:05.838Z,1.70
2019-06-15T08:25:36.393Z,1.80
2019-06-15T08:28:06.116Z,1.70
2019-06-15T08:30:43.893Z,1.30
2019-06-15T08:33:13.596Z,1.80
2019-06-15T08:35:43.307Z,1.33
2019-06-15T08:38:12.888Z,1.40
2019-06-15T08:40:42.577Z,1.10
2019-06-15T08:43:14.883Z,1.60
2019-06-15T08:45:44.520Z,1.57
2019-06-15T08:48:14.031Z,1.40
2019-06-15T08:50:43.551Z,1.40
2019-06-15T08:53:13.112Z,1.30
2019-06-15T08:55:42.689Z,1.17
2019-06-15T08:58:12.206Z,1.03
2019-06-15T09:00:41.781Z,1.00
2019-06-15T09:03:11.724Z,1.10
2019-06-15T09:05:41.199Z,1.50
2019-06-15T09:08:10.785Z,1.10
2019-06-15T09:10:40.269Z,1.10
2019-06-15T09:13:09.764Z,1.20
2019-06-15T09:15:46.728Z,1.10
2019-06-15T09:18:17.382Z,1.00
2019-06-15T09:20:47.622Z,1.20
2019-06-15T09:23:18.229Z,1.33
2019-06-15T09:25:47.921Z,1.20
2019-06-15T09:28:17.415Z,1.00
2019-06-15T09:30:47.811Z,1.30
2019-06-15T09:33:17.595Z,1.10
2019-06-15T09:35:47.132Z,1.00
2019-06-15T09:38:16.650Z,1.00
2019-06-15T09:40:46.219Z,0.83
2019-06-15T09:43:15.858Z,1.43
2019-06-15T09:45:45.349Z,1.10
2019-06-15T09:48:15.010Z,0.83
2019-06-15T09:50:44.582Z,0.90
2019-06-15T09:53:14.165Z,1.00
2019-06-15T09:55:43.710Z,0.77
2019-06-15T09:58:13.315Z,1.20
2019-06-15T10:00:42.992Z,0.90
2019-06-15T10:03:12.660Z,0.97
2019-06-15T10:05:42.206Z,1.10
2019-06-15T10:08:11.744Z,1.10
2019-06-15T10:10:41.331Z,0.90
2019-06-15T10:13:10.894Z,1.30
2019-06-15T10:15:40.509Z,1.03
2019-06-15T10:18:10.018Z,1.10
2019-06-15T10:20:39.567Z,1.10
2019-06-15T10:23:09.073Z,0.90
2019-06-15T10:25:38.571Z,1.00
2019-06-15T10:28:08.149Z,1.10
2019-06-15T10:30:37.699Z,1.00
2019-06-15T10:33:07.183Z,1.03
2019-06-15T10:35:36.701Z,1.00
2019-06-15T10:38:06.271Z,1.00
2019-06-15T10:40:35.833Z,1.10
2019-06-15T10:43:05.408Z,1.10
2019-06-15T10:45:35.179Z,1.33
2019-06-15T10:48:04.713Z,1.27
2019-06-15T10:50:34.267Z,1.17
2019-06-15T10:53:03.753Z,1.00
2019-06-15T10:55:33.251Z,1.60
2019-06-15T10:58:02.742Z,1.40
2019-06-15T11:00:32.322Z,1.00
2019-06-15T11:03:01.899Z,1.50
2019-06-15T11:05:31.425Z,1.50
2019-06-15T11:08:00.924Z,2.30
2019-06-15T11:10:49.838Z,3.53
2019-06-15T11:13:19.348Z,1.30
2019-06-15T11:15:49.023Z,1.40
2019-06-15T11:18:18.615Z,1.30
2019-06-15T11:20:48.434Z,1.50
2019-06-15T11:23:18.256Z,1.87
2019-06-15T11:25:47.749Z,2.10
2019-06-15T11:28:17.232Z,3.27
2019-06-15T11:30:46.716Z,1.73
2019-06-15T11:33:16.234Z,1.50
2019-06-15T11:35:46.978Z,1.30
2019-06-15T11:38:16.630Z,3.13
2019-06-15T11:40:46.174Z,4.30
2019-06-15T11:43:15.687Z,1.40
2019-06-15T11:45:45.843Z,2.20
2019-06-15T11:48:15.355Z,2.00
2019-06-15T11:50:44.896Z,1.57
2019-06-15T11:53:14.449Z,1.70
2019-06-15T11:55:43.938Z,1.40
2019-06-15T11:58:13.541Z,1.50
2019-06-15T12:00:43.164Z,1.93
2019-06-15T12:03:12.894Z,1.43
2019-06-15T12:05:42.472Z,1.53
2019-06-15T12:08:12.459Z,1.40
2019-06-15T12:10:41.980Z,1.50
2019-06-15T12:13:15.080Z,1.67
2019-06-15T12:15:44.737Z,2.13
2019-06-15T12:18:14.243Z,1.37
2019-06-15T12:20:44.370Z,1.50
2019-06-15T12:23:13.876Z,1.53
2019-06-15T12:25:43.378Z,1.40
2019-06-15T12:28:12.870Z,1.60
2019-06-15T12:30:47.347Z,1.50
2019-06-15T12:33:14.425Z,1.47
2019-06-15T12:35:43.911Z,4.70
2019-06-15T12:38:13.490Z,1.70
2019-06-15T12:40:42.993Z,1.77
2019-06-15T12:43:12.507Z,2.10
2019-06-15T12:45:42.465Z,1.60
2019-06-15T12:48:15.557Z,1.80
2019-06-15T12:50:45.115Z,1.70
2019-06-15T12:53:14.586Z,1.70
2019-06-15T12:55:44.069Z,1.90
2019-06-15T12:58:13.741Z,1.63
2019-06-15T13:00:43.264Z,2.10
2019-06-15T13:03:12.835Z,2.00
2019-06-15T13:05:42.423Z,2.07
2019-06-15T13:08:11.989Z,1.83
2019-06-15T13:10:41.501Z,1.60
2019-06-15T13:13:11.053Z,2.10
2019-06-15T13:15:42.259Z,2.20
2019-06-15T13:18:11.907Z,1.80
2019-06-15T13:20:41.453Z,1.73
2019-06-15T13:23:11.020Z,2.07
2019-06-15T13:25:40.546Z,1.70
2019-06-15T13:28:10.046Z,1.90
2019-06-15T13:30:39.549Z,1.60
2019-06-15T13:33:09.271Z,1.70
2019-06-15T13:35:38.941Z,1.77
2019-06-15T13:38:08.475Z,1.80
2019-06-15T13:40:38.226Z,2.00
2019-06-15T13:43:07.725Z,2.17
2019-06-15T13:45:37.216Z,1.73
2019-06-15T13:48:06.817Z,2.07
2019-06-15T13:50:36.322Z,2.03
2019-06-15T13:53:05.870Z,2.33
2019-06-15T13:55:35.380Z,1.97
2019-06-15T13:58:04.963Z,2.10
2019-06-15T14:00:34.443Z,2.60
2019-06-15T14:03:04.011Z,2.30
2019-06-15T14:05:33.536Z,2.27
2019-06-15T14:08:03.020Z,2.63
2019-06-15T14:10:32.551Z,2.10
2019-06-15T14:13:02.032Z,1.90
2019-06-15T14:15:31.539Z,2.40
2019-06-15T14:18:01.029Z,2.30
2019-06-15T14:20:30.571Z,2.07
2019-06-15T14:23:00.170Z,2.70
2019-06-15T14:25:29.731Z,2.20
2019-06-15T14:27:59.280Z,1.90
2019-06-15T14:30:28.930Z,2.17
2019-06-15T14:32:58.480Z,2.00
2019-06-15T14:35:28.006Z,2.53
2019-06-15T14:37:57.520Z,1.90
2019-06-15T14:40:27.298Z,2.07
2019-06-15T14:42:56.825Z,2.80
2019-06-15T14:45:26.418Z,2.20
2019-06-15T14:47:55.916Z,2.20
2019-06-15T14:50:25.546Z,2.80
2019-06-15T14:52:55.151Z,2.43
2019-06-15T14:55:26.264Z,2.30
2019-06-15T14:57:55.989Z,2.30
2019-06-15T15:00:25.607Z,2.17
2019-06-15T15:02:55.972Z,2.13
2019-06-15T15:05:27.355Z,2.77
2019-06-15T15:07:56.939Z,2.30
2019-06-15T15:10:26.811Z,2.10
2019-06-15T15:12:56.752Z,2.63
2019-06-15T15:15:26.437Z,1.70
2019-06-15T15:17:57.759Z,2.30
2019-06-15T15:20:27.391Z,2.20
2019-06-15T15:22:57.026Z,2.20
2019-06-15T15:25:26.598Z,2.10
2019-06-15T15:27:57.195Z,2.27
2019-06-15T15:30:41.310Z,2.10
2019-06-15T15:33:10.921Z,2.10
2019-06-15T15:35:40.427Z,2.20
2019-06-15T15:38:09.950Z,2.13
2019-06-15T15:40:39.528Z,2.40
2019-06-15T15:43:09.121Z,2.10
2019-06-15T15:45:38.641Z,2.10
2019-06-15T15:48:08.142Z,2.50
2019-06-15T15:50:37.732Z,2.43
2019-06-15T15:53:07.369Z,2.20
2019-06-15T15:55:36.986Z,2.30
2019-06-15T15:58:06.904Z,2.00
2019-06-15T16:00:36.958Z,2.17
2019-06-15T16:03:07.290Z,2.30
2019-06-15T16:05:37.442Z,2.30
2019-06-15T16:08:07.084Z,2.00
2019-06-15T16:10:37.442Z,2.60
2019-06-15T16:13:07.174Z,2.00
2019-06-15T16:15:37.367Z,2.80
2019-06-15T16:18:07.253Z,2.27
2019-06-15T16:20:37.251Z,2.63
2019-06-15T16:23:07.716Z,2.00
2019-06-15T16:25:37.556Z,2.20
2019-06-15T16:28:07.418Z,1.93
2019-06-15T16:31:00.363Z,2.27
2019-06-15T16:33:08.562Z,2.40
2019-06-15T16:35:38.097Z,1.90
2019-06-15T16:38:07.863Z,2.17
2019-06-15T16:40:39.349Z,2.33
2019-06-15T16:43:09.575Z,2.60
2019-06-15T16:45:39.309Z,2.30
2019-06-15T16:48:08.954Z,2.90
2019-06-15T16:50:38.535Z,2.73
2019-06-15T16:53:08.185Z,2.43
2019-06-15T16:55:37.821Z,2.30
2019-06-15T16:58:07.836Z,2.37
2019-06-15T17:00:37.481Z,2.17
2019-06-15T17:03:20.956Z,2.53
2019-06-15T17:05:38.403Z,2.73
2019-06-15T17:08:08.003Z,2.90
2019-06-15T17:10:42.232Z,2.87
2019-06-15T17:13:12.341Z,3.10
2019-06-15T17:15:42.076Z,2.87
2019-06-15T17:18:11.706Z,2.33
2019-06-15T17:20:50.969Z,2.77
2019-06-15T17:23:21.049Z,2.97
2019-06-15T17:25:50.863Z,2.73
2019-06-15T17:28:20.542Z,2.50
2019-06-15T17:30:50.262Z,3.70
2019-06-15T17:33:33.340Z,2.90
2019-06-15T17:35:59.042Z,3.10
2019-06-15T17:38:22.285Z,3.13
2019-06-15T17:40:51.818Z,2.50
2019-06-15T17:43:21.443Z,3.33
2019-06-15T17:45:51.858Z,3.33
2019-06-15T17:48:21.443Z,2.77
2019-06-15T17:50:50.977Z,2.80
2019-06-15T17:53:20.515Z,4.07
2019-06-15T17:55:50.275Z,3.40
2019-06-15T17:58:19.956Z,2.50
2019-06-15T18:00:51.142Z,5.00
2019-06-15T18:03:20.680Z,4.93
2019-06-15T18:05:50.370Z,3.70
2019-06-15T18:08:19.937Z,2.50
2019-06-15T18:10:49.448Z,2.80
2019-06-15T18:13:18.963Z,2.37
2019-06-15T18:15:48.506Z,2.67
2019-06-15T18:18:18.074Z,3.40
2019-06-15T18:20:47.706Z,2.87
2019-06-15T18:23:19.578Z,2.87
2019-06-15T18:25:49.221Z,3.10
2019-06-15T18:28:21.713Z,3.50
2019-06-15T18:30:51.312Z,2.80
2019-06-15T18:33:20.911Z,2.77
2019-06-15T18:35:54.734Z,2.60
2019-06-15T18:38:26.073Z,2.33
2019-06-15T18:40:56.253Z,2.63
2019-06-15T18:43:26.282Z,2.90
2019-06-15T18:45:56.797Z,3.60
2019-06-15T18:48:26.674Z,2.70
2019-06-15T18:50:56.210Z,2.73
2019-06-15T18:53:26.873Z,2.63
2019-06-15T18:55:57.100Z,3.23
2019-06-15T18:58:26.553Z,2.47
2019-06-15T19:00:56.072Z,2.60
2019-06-15T19:03:29.013Z,2.40
2019-06-15T19:05:59.130Z,2.67
2019-06-15T19:08:28.906Z,2.77
2019-06-15T19:10:58.469Z,2.80
2019-06-15T19:13:28.292Z,2.60
2019-06-15T19:15:57.792Z,2.60
2019-06-15T19:18:27.385Z,3.77
2019-06-15T19:20:58.571Z,2.50
2019-06-15T19:23:30.291Z,3.10
2019-06-15T19:25:59.965Z,2.80
2019-06-15T19:28:29.555Z,2.70
2019-06-15T19:30:59.059Z,3.13
2019-06-15T19:33:28.632Z,3.20
2019-06-15T19:35:59.494Z,2.87
2019-06-15T19:38:29.258Z,3.00
2019-06-15T19:40:59.228Z,2.80
2019-06-15T19:43:28.831Z,2.43
2019-06-15T19:45:58.577Z,2.73
2019-06-15T19:48:29.971Z,2.70
2019-06-15T19:51:00.088Z,2.07
2019-06-15T19:53:30.243Z,2.50
2019-06-15T19:56:00.579Z,2.47
2019-06-15T19:58:31.175Z,3.43
2019-06-15T20:01:01.522Z,2.50
2019-06-15T20:03:31.851Z,2.40
2019-06-15T20:06:02.073Z,2.30
2019-06-15T20:08:32.283Z,2.97
2019-06-15T20:11:02.009Z,2.40
2019-06-15T20:13:32.044Z,2.50
2019-06-15T20:16:01.627Z,2.30
2019-06-15T20:18:33.842Z,2.93
2019-06-15T20:21:03.304Z,2.40
2019-06-15T20:23:36.769Z,2.40
2019-06-15T20:26:06.628Z,3.30
2019-06-15T20:28:38.934Z,4.07
2019-06-15T20:31:08.480Z,3.80
2019-06-15T20:33:38.079Z,3.00
2019-06-15T20:36:08.249Z,4.37
2019-06-15T20:38:38.497Z,2.90
2019-06-15T20:41:08.096Z,3.10
2019-06-15T20:43:37.701Z,2.73
2019-06-15T20:46:07.388Z,5.40
2019-06-15T20:48:37.179Z,4.47
2019-06-15T20:51:10.228Z,4.40
2019-06-15T20:53:38.164Z,3.83
2019-06-15T20:56:08.318Z,3.33
2019-06-15T20:58:38.290Z,4.20
2019-06-15T21:01:08.418Z,4.23
2019-06-15T21:03:38.007Z,3.00
2019-06-15T21:06:09.230Z,3.40
2019-06-15T21:08:38.927Z,3.23
2019-06-15T21:11:09.252Z,4.00
2019-06-15T21:13:39.265Z,3.17
2019-06-15T21:16:10.605Z,3.10
2019-06-15T21:18:40.344Z,3.37
2019-06-15T21:21:09.912Z,3.30
2019-06-15T21:23:39.876Z,2.83
2019-06-15T21:26:09.987Z,4.30
2019-06-15T21:28:39.559Z,4.10
2019-06-15T21:31:09.788Z,3.20
2019-06-15T21:33:40.754Z,3.30
2019-06-15T21:36:10.361Z,3.80
2019-06-15T21:38:39.935Z,3.87
2019-06-15T21:41:09.568Z,3.80
2019-06-15T21:43:44.299Z,3.93
2019-06-15T21:46:11.006Z,3.47
2019-06-15T21:48:41.857Z,3.67
2019-06-15T21:51:11.403Z,3.80
2019-06-15T21:53:41.915Z,3.73
2019-06-15T21:56:11.559Z,3.97
2019-06-15T21:58:41.209Z,3.80
2019-06-15T22:01:32.899Z,4.30
2019-06-15T22:04:02.945Z,3.57
2019-06-15T22:06:33.413Z,5.03
2019-06-15T22:09:02.986Z,6.97
2019-06-15T22:11:32.561Z,3.17
2019-06-15T22:14:02.146Z,5.53
2019-06-15T22:16:31.654Z,4.73
2019-06-15T22:19:01.189Z,5.90
2019-06-15T22:21:30.864Z,7.33
2019-06-15T22:24:00.424Z,3.20
2019-06-15T22:26:30.025Z,3.23
2019-06-15T22:28:59.606Z,3.20
2019-06-15T22:31:29.277Z,3.40
2019-06-15T22:33:58.941Z,3.40
2019-06-15T22:36:28.813Z,2.93
2019-06-15T22:38:58.309Z,3.13
2019-06-15T22:41:27.835Z,3.40
2019-06-15T22:43:57.428Z,16.60
2019-06-15T22:46:26.944Z,6.80
2019-06-15T22:48:56.510Z,4.70
2019-06-15T22:51:27.610Z,4.87
2019-06-15T22:53:57.381Z,6.90
2019-06-15T22:56:26.895Z,4.67
2019-06-15T22:58:56.962Z,4.87
2019-06-15T23:01:26.887Z,4.30
2019-06-15T23:03:57.151Z,3.73
2019-06-15T23:06:36.960Z,3.70
2019-06-15T23:08:58.189Z,3.80
2019-06-15T23:11:27.717Z,4.13
2019-06-15T23:13:57.685Z,3.50
2019-06-15T23:16:27.528Z,3.27
2019-06-15T23:18:57.508Z,4.10
2019-06-15T23:21:27.121Z,3.40
2019-06-15T23:23:56.606Z,3.00
2019-06-15T23:26:26.347Z,4.30
2019-06-15T23:28:56.567Z,3.37
2019-06-15T23:31:26.284Z,3.50
2019-06-15T23:33:56.220Z,4.10
2019-06-15T23:36:30.527Z,4.03
2019-06-15T23:39:00.091Z,4.27
2019-06-15T23:41:29.648Z,4.13
2019-06-15T23:43:59.234Z,4.20
2019-06-15T23:46:28.884Z,3.97
2019-06-15T23:48:58.372Z,3.83
2019-06-15T23:51:28.046Z,3.77
2019-06-15T23:53:57.543Z,4.00
2019-06-15T23:56:28.024Z,4.67
2019-06-15T23:58:57.531Z,4.50
